Time;durP1;ratioP1;P1;durP2;ratioP2;P2;SDS_P1;SDS_P2;PMS_P1;PMS_P2;Temp;Humidity;BMP_temperature;BMP_pressure;BME280_temperature;BME280_humidity;BME280_pressure;Samples;Min_cycle;Max_cycle;Signal;HPM_P1;HPM_P2
2021/12/16 00:03:25;;;;;;;53.80;32.08;;;;;;;8.30;99.26;103317.22;5056146;28;20033;-56
2021/12/16 00:08:25;;;;;;;51.72;32.15;;;;;;;8.26;99.42;103324.28;5055889;28;20037;-55
2021/12/16 00:11:01;;;;;;;49.22;31.95;;;;;;;8.26;99.90;103318.78;5055438;28;20029;-55
2021/12/16 00:32:29;;;;;;;52.15;31.25;;;;;;;8.19;99.82;103335.41;5055383;28;20037;-56
2021/12/16 00:34:55;;;;;;;52.25;31.45;;;;;;;8.20;99.63;103334.31;5054718;28;20044;-55
2021/12/16 00:37:20;;;;;;;49.13;30.95;;;;;;;8.20;99.68;103326.06;5054829;28;20587;-55
2021/12/16 00:39:47;;;;;;;51.92;31.90;;;;;;;8.19;100.00;103329.88;5052857;28;20112;-57
2021/12/16 00:42:30;;;;;;;49.72;30.48;;;;;;;8.20;99.95;103333.47;5054265;28;20544;-56
2021/12/16 00:46:09;;;;;;;53.60;31.60;;;;;;;8.22;100.00;103332.16;5054820;28;20396;-55
2021/12/16 00:47:57;;;;;;;;;;;;;;;8.30;99.56;103327.44;5050077;28;20041;-57
2021/12/16 00:55:50;;;;;;;55.33;30.48;;;;;;;8.24;99.51;103334.72;5054766;28;20446;-55
2021/12/16 00:58:20;;;;;;;48.95;29.92;;;;;;;8.19;100.00;103327.13;5054636;28;20025;-57
2021/12/16 01:00:55;;;;;;;48.88;30.08;;;;;;;8.24;99.78;103316.22;5055038;28;20028;-55
2021/12/16 01:03:30;;;;;;;50.17;29.70;;;;;;;8.22;99.95;103332.16;5055464;28;20029;-57
2021/12/16 01:09:00;;;;;;;47.45;28.90;;;;;;;8.22;99.96;103334.09;5054516;28;20037;-56
2021/12/16 01:36:13;;;;;;;47.78;29.52;;;;;;;8.19;99.90;103348.31;5053834;28;20049;-55
2021/12/16 01:52:25;;;;;;;46.03;29.35;;;;;;;8.24;99.86;103354.84;5053517;28;20098;-55
2021/12/16 01:55:05;;;;;;;47.15;28.63;;;;;;;8.22;99.97;103365.25;5053418;28;20045;-55
2021/12/16 01:57:35;;;;;;;48.22;29.65;;;;;;;8.19;99.93;103364.88;5052840;28;20025;-55
2021/12/16 02:00:08;;;;;;;49.88;30.83;;;;;;;8.19;100.00;103368.50;5053286;28;20036;-56
2021/12/16 02:07:56;;;;;;;48.53;29.45;;;;;;;8.19;100.00;103376.75;5052981;28;20041;-55
2021/12/16 02:10:28;;;;;;;48.97;30.10;;;;;;;8.19;100.00;103378.66;5052676;28;20029;-56
2021/12/16 02:31:54;;;;;;;46.47;28.33;;;;;;;8.22;99.97;103386.47;5053149;28;20479;-55
2021/12/16 02:37:03;;;;;;;48.55;28.50;;;;;;;8.23;100.00;103389.00;5052678;28;20085;-55
2021/12/16 02:39:32;;;;;;;44.50;28.45;;;;;;;8.21;100.00;103382.91;5052222;28;20021;-55
2021/12/16 02:42:04;;;;;;;46.08;29.77;;;;;;;8.12;100.00;103382.34;5052357;28;20025;-55
2021/12/16 02:48:29;;;;;;;45.88;29.25;;;;;;;8.19;100.00;103392.44;5053197;28;20028;-56
2021/12/16 02:50:10;;;;;;;45.97;28.38;;;;;;;8.19;100.00;103397.97;5053264;28;20066;-55
2021/12/16 02:52:36;;;;;;;45.30;28.65;;;;;;;8.20;100.00;103397.75;5052715;28;20021;-55
2021/12/16 02:55:02;;;;;;;44.90;29.05;;;;;;;8.18;100.00;103391.63;5052664;28;20449;-59
2021/12/16 02:57:28;;;;;;;47.17;29.13;;;;;;;8.20;100.00;103391.38;5052340;28;20523;-57
2021/12/16 02:59:54;;;;;;;46.00;30.00;;;;;;;8.18;100.00;103390.75;5053031;28;20044;-57
2021/12/16 03:02:21;;;;;;;45.40;29.42;;;;;;;8.13;100.00;103374.88;5052795;28;20116;-55
2021/12/16 03:04:50;;;;;;;44.42;28.63;;;;;;;8.15;100.00;103375.50;5052887;28;20033;-57
2021/12/16 03:07:18;;;;;;;47.92;29.20;;;;;;;8.17;100.00;103387.16;5052812;28;20099;-55
2021/12/16 03:10:22;;;;;;;43.40;28.85;;;;;;;8.09;100.00;103376.44;5051532;28;20033;-55
2021/12/16 03:19:15;;;;;;;44.83;27.45;;;;;;;8.17;100.00;103389.94;5029490;28;20041;-55
2021/12/16 03:21:24;;;;;;;46.90;29.42;;;;;;;8.15;100.00;103392.06;5048708;28;20395;-56
2021/12/16 03:27:06;;;;;;;46.83;29.63;;;;;;;8.14;100.00;103390.38;5056482;28;20044;-55
2021/12/16 03:37:15;;;;;;;46.47;28.05;;;;;;;8.11;100.00;103382.56;5055528;28;19909;-56
2021/12/16 03:40:05;;;;;;;47.13;27.73;;;;;;;8.04;100.00;103385.38;5056259;28;20025;-58
2021/12/16 03:42:40;;;;;;;48.58;29.67;;;;;;;8.08;100.00;103385.78;5056548;28;20049;-56
2021/12/16 03:48:30;;;;;;;45.00;27.67;;;;;;;8.07;100.00;103389.59;5056052;28;20039;-56
2021/12/16 03:50:57;;;;;;;43.58;28.48;;;;;;;8.08;100.00;103399.56;5056176;28;20029;-56
2021/12/16 03:53:22;;;;;;;46.10;28.67;;;;;;;8.06;100.00;103397.03;5055934;28;20037;-56
2021/12/16 03:55:49;;;;;;;44.65;29.23;;;;;;;8.07;100.00;103406.13;5053989;28;20021;-56
2021/12/16 03:58:15;;;;;;;48.05;29.55;;;;;;;8.05;100.00;103398.09;5055894;28;20033;-56
2021/12/16 04:00:47;;;;;;;43.97;29.33;;;;;;;8.07;100.00;103408.91;5055908;28;20040;-56
2021/12/16 04:03:13;;;;;;;43.85;27.63;;;;;;;8.04;100.00;103412.09;5055539;28;20033;-57
2021/12/16 04:05:39;;;;;;;45.15;29.45;;;;;;;8.03;100.00;103421.47;5055808;28;20021;-57
2021/12/16 04:08:05;;;;;;;44.13;29.02;;;;;;;8.00;100.00;103410.88;5055858;28;20551;-57
2021/12/16 04:10:40;;;;;;;48.33;29.00;;;;;;;7.96;100.00;103404.97;5055915;28;20111;-58
2021/12/16 04:13:08;;;;;;;42.25;27.75;;;;;;;7.94;100.00;103407.94;5055277;28;20029;-56
2021/12/16 04:15:33;;;;;;;44.42;28.77;;;;;;;7.92;100.00;103407.34;5055459;28;20025;-56
2021/12/16 04:17:59;;;;;;;46.55;30.17;;;;;;;7.93;100.00;103409.03;5055753;28;20468;-56
2021/12/16 04:20:25;;;;;;;46.55;29.08;;;;;;;7.87;100.00;103404.41;5055600;28;20472;-57
2021/12/16 04:22:51;;;;;;;48.78;30.15;;;;;;;7.81;100.00;103411.66;5055817;28;20025;-55
2021/12/16 04:25:22;;;;;;;44.97;28.77;;;;;;;7.74;100.00;103404.53;5055417;28;20025;-55
2021/12/16 04:27:50;;;;;;;44.70;28.13;;;;;;;7.69;100.00;103401.56;5055503;28;20063;-56
2021/12/16 04:30:17;;;;;;;44.92;29.55;;;;;;;7.58;100.00;103401.22;5055441;28;20652;-55
2021/12/16 04:32:43;;;;;;;45.17;27.77;;;;;;;7.61;100.00;103409.06;5054452;28;20029;-55
2021/12/16 04:35:08;;;;;;;47.38;29.27;;;;;;;7.58;100.00;103395.72;5054990;28;20182;-55
2021/12/16 04:37:35;;;;;;;47.65;30.48;;;;;;;7.51;100.00;103400.44;5054932;28;20103;-55
2021/12/16 04:40:02;;;;;;;43.50;28.70;;;;;;;7.46;100.00;103401.09;5055381;28;20040;-56
2021/12/16 04:42:28;;;;;;;48.97;30.55;;;;;;;7.41;100.00;103400.94;5055249;28;20145;-56
2021/12/16 04:44:54;;;;;;;47.03;30.58;;;;;;;7.34;100.00;103406.50;5052824;28;20205;-56
2021/12/16 04:47:20;;;;;;;45.63;29.75;;;;;;;7.28;100.00;103399.09;5055086;28;20029;-56
2021/12/16 04:49:45;;;;;;;48.90;31.00;;;;;;;7.26;100.00;103401.25;5054492;28;20047;-56
2021/12/16 04:52:16;;;;;;;48.45;28.70;;;;;;;7.19;100.00;103392.16;5055440;28;20036;-56
2021/12/16 04:54:43;;;;;;;43.88;28.90;;;;;;;7.20;100.00;103406.78;5054915;28;20483;-56
2021/12/16 04:57:10;;;;;;;47.78;29.67;;;;;;;7.18;100.00;103402.34;5054093;28;20025;-56
2021/12/16 04:59:37;;;;;;;47.50;29.98;;;;;;;7.14;100.00;103405.75;5054389;28;20081;-55
2021/12/16 05:02:06;;;;;;;46.17;29.55;;;;;;;7.04;100.00;103392.44;5054771;28;20476;-56
2021/12/16 05:04:32;;;;;;;48.10;29.88;;;;;;;7.09;100.00;103408.28;5054788;28;20024;-55
2021/12/16 05:06:57;;;;;;;47.75;30.50;;;;;;;7.08;100.00;103412.16;5055020;28;20024;-56
2021/12/16 05:12:05;;;;;;;47.92;29.33;;;;;;;6.97;100.00;103410.91;5055084;28;20041;-57
2021/12/16 05:14:31;;;;;;;48.70;29.55;;;;;;;6.95;100.00;103405.63;5054231;28;20033;-56
2021/12/16 05:16:56;;;;;;;48.13;31.75;;;;;;;6.92;100.00;103417.06;5053193;28;20063;-56
2021/12/16 05:19:23;;;;;;;46.47;29.80;;;;;;;6.86;100.00;103420.69;5054454;28;20025;-56
2021/12/16 05:21:55;;;;;;;50.83;30.70;;;;;;;6.79;100.00;103420.72;5054740;28;20043;-58
2021/12/16 05:24:27;;;;;;;50.47;30.60;;;;;;;6.79;100.00;103417.97;5054218;28;20388;-57
2021/12/16 05:26:57;;;;;;;51.40;30.58;;;;;;;6.79;100.00;103423.47;5053806;28;20513;-57
2021/12/16 05:29:23;;;;;;;48.55;30.25;;;;;;;6.81;100.00;103426.00;5053991;28;20041;-59
2021/12/16 05:31:49;;;;;;;51.08;31.60;;;;;;;6.81;100.00;103426.84;5053907;28;20024;-55
2021/12/16 05:34:15;;;;;;;48.60;30.60;;;;;;;6.77;100.00;103427.50;5053810;28;20044;-54
2021/12/16 05:36:41;;;;;;;48.58;30.10;;;;;;;6.73;100.00;103424.34;5053818;28;20025;-54
2021/12/16 05:39:07;;;;;;;47.65;30.05;;;;;;;6.70;100.00;103436.63;5053438;28;20098;-53
2021/12/16 05:41:32;;;;;;;50.15;30.02;;;;;;;6.64;100.00;103437.47;5053688;28;20120;-54
2021/12/16 05:43:58;;;;;;;51.28;30.08;;;;;;;6.62;100.00;103444.25;5053193;28;20133;-55
2021/12/16 05:46:24;;;;;;;53.17;32.05;;;;;;;6.59;100.00;103444.69;5054084;28;20051;-56
2021/12/16 05:48:53;;;;;;;53.17;31.38;;;;;;;6.51;100.00;103430.09;5053252;28;20075;-55
2021/12/16 05:51:22;;;;;;;51.28;30.48;;;;;;;6.53;100.00;103440.88;5053714;28;20028;-55
2021/12/16 05:53:50;;;;;;;49.50;29.63;;;;;;;6.49;100.00;103447.88;5053566;28;20025;-55
2021/12/16 05:56:16;;;;;;;49.97;30.05;;;;;;;6.48;100.00;103447.03;5053990;28;20060;-57
2021/12/16 05:58:43;;;;;;;51.15;30.33;;;;;;;6.48;100.00;103458.03;5053979;28;20032;-56
2021/12/16 06:01:18;;;;;;;50.60;30.08;;;;;;;6.45;100.00;103458.47;5052306;28;20033;-56
2021/12/16 06:03:45;;;;;;;51.95;31.17;;;;;;;6.45;100.00;103476.88;5052756;28;20033;-56
2021/12/16 06:06:12;;;;;;;47.08;30.95;;;;;;;6.43;100.00;103465.22;5053679;28;20036;-56
2021/12/16 06:08:38;;;;;;;48.13;31.15;;;;;;;6.38;100.00;103466.72;5053460;28;20045;-55
2021/12/16 06:13:35;;;;;;;51.47;30.90;;;;;;;6.37;100.00;103472.44;5053658;28;20033;-56
2021/12/16 06:29:24;;;;;;;45.45;29.25;;;;;;;6.07;100.00;103481.13;5053484;28;20033;-57
2021/12/16 06:31:50;;;;;;;48.33;30.15;;;;;;;6.04;100.00;103484.28;5053228;28;20100;-54
2021/12/16 06:34:16;;;;;;;48.22;30.45;;;;;;;5.96;100.00;103482.53;5053063;28;20029;-55
2021/12/16 06:36:42;;;;;;;52.83;30.55;;;;;;;5.94;100.00;103481.94;5053225;28;20041;-58
2021/12/16 06:39:08;;;;;;;50.33;30.00;;;;;;;5.90;100.00;103489.72;5052989;28;20029;-56
2021/12/16 06:41:37;;;;;;;52.17;30.60;;;;;;;5.90;100.00;103491.63;5053125;28;20541;-58
2021/12/16 06:44:13;;;;;;;50.38;29.98;;;;;;;5.81;100.00;103474.50;5052990;28;20056;-56
2021/12/16 06:46:40;;;;;;;48.58;29.02;;;;;;;5.75;100.00;103489.06;5052702;28;20054;-55
2021/12/16 06:49:06;;;;;;;46.65;26.90;;;;;;;5.70;100.00;103486.13;5053477;28;20025;-55
2021/12/16 06:51:50;;;;;;;45.47;27.48;;;;;;;5.61;100.00;103486.31;5053312;28;20068;-57
2021/12/16 06:54:24;;;;;;;48.88;28.38;;;;;;;5.58;100.00;103483.09;5053320;28;20051;-57
2021/12/16 06:57:11;;;;;;;47.58;28.40;;;;;;;5.57;100.00;103492.44;5052891;28;20079;-57
2021/12/16 06:59:41;;;;;;;47.75;27.60;;;;;;;5.56;100.00;103486.06;5053132;28;20082;-55
2021/12/16 07:02:16;;;;;;;50.38;27.95;;;;;;;5.55;100.00;103484.38;5053080;28;20119;-55
2021/12/16 07:04:43;;;;;;;43.92;27.60;;;;;;;5.55;100.00;103494.53;5052828;28;20061;-55
2021/12/16 07:07:11;;;;;;;48.95;28.02;;;;;;;5.44;100.00;103477.59;5052534;28;20477;-57
2021/12/16 07:09:37;;;;;;;44.75;28.42;;;;;;;5.49;100.00;103504.44;5051916;28;20108;-56
2021/12/16 07:12:04;;;;;;;46.45;27.98;;;;;;;5.45;100.00;103506.75;5052264;28;20057;-56
2021/12/16 07:14:37;;;;;;;43.20;26.10;;;;;;;5.27;100.00;103506.47;5052825;28;20131;-56
2021/12/16 07:17:12;;;;;;;48.38;27.88;;;;;;;5.35;100.00;103520.00;5051832;28;20396;-55
2021/12/16 07:19:39;;;;;;;42.45;25.75;;;;;;;5.29;100.00;103526.34;5052195;28;20033;-56
2021/12/16 07:22:07;;;;;;;46.00;26.20;;;;;;;5.23;100.00;103517.00;5052595;28;20025;-56
2021/12/16 07:24:32;;;;;;;44.20;26.80;;;;;;;5.26;100.00;103533.06;5052384;28;20025;-56
2021/12/16 07:26:57;;;;;;;45.97;27.20;;;;;;;5.23;100.00;103546.34;5051155;28;20087;-56
2021/12/16 07:29:23;;;;;;;45.20;27.00;;;;;;;5.20;100.00;103546.75;5052218;28;20021;-55
2021/12/16 07:31:48;;;;;;;43.17;26.02;;;;;;;5.13;100.00;103550.31;5052299;28;20067;-58
2021/12/16 07:34:14;;;;;;;40.70;24.98;;;;;;;5.09;100.00;103559.16;5052531;28;20464;-57
2021/12/16 07:36:42;;;;;;;39.67;24.52;;;;;;;5.05;100.00;103563.38;5053037;28;20028;-57
2021/12/16 07:39:10;;;;;;;41.42;23.88;;;;;;;4.99;100.00;103554.03;5052611;28;20098;-57
2021/12/16 07:41:38;;;;;;;43.15;24.92;;;;;;;4.97;100.00;103565.19;5052688;28;20021;-57
2021/12/16 07:44:11;;;;;;;44.58;26.75;;;;;;;4.95;100.00;103566.44;5052710;28;20492;-57
2021/12/16 07:46:36;;;;;;;41.53;25.17;;;;;;;4.91;100.00;103571.50;5052575;28;20411;-58
2021/12/16 07:49:04;;;;;;;43.28;25.30;;;;;;;4.90;100.00;103585.41;5052435;28;20280;-57
2021/12/16 07:51:30;;;;;;;40.42;23.52;;;;;;;4.87;100.00;103594.03;5052878;28;20110;-57
2021/12/16 07:53:55;;;;;;;40.20;24.08;;;;;;;4.82;100.00;103598.22;5052542;28;20067;-56
2021/12/16 07:56:21;;;;;;;40.55;23.77;;;;;;;4.80;100.00;103600.34;5052627;28;20036;-57
2021/12/16 07:58:46;;;;;;;40.50;23.17;;;;;;;4.74;100.00;103600.28;5052593;28;20029;-57
2021/12/16 08:01:11;;;;;;;40.83;23.63;;;;;;;4.68;100.00;103601.91;5052634;28;20060;-57
2021/12/16 08:03:38;;;;;;;40.47;23.27;;;;;;;4.66;100.00;103602.13;5052369;28;20037;-55
2021/12/16 08:06:10;;;;;;;40.67;22.90;;;;;;;4.59;100.00;103589.41;5052516;28;20063;-55
2021/12/16 08:08:36;;;;;;;42.72;24.35;;;;;;;4.65;100.00;103611.41;5055097;28;20029;-55
2021/12/16 08:11:03;;;;;;;48.70;25.55;;;;;;;4.58;100.00;103612.38;5056098;28;20549;-56
2021/12/16 08:13:28;;;;;;;47.53;24.83;;;;;;;4.62;100.00;103611.78;5055903;28;20048;-57
2021/12/16 08:15:53;;;;;;;60.00;22.67;;;;;;;4.58;100.00;103609.63;5056471;28;20476;-58
2021/12/16 08:18:19;;;;;;;74.75;23.77;;;;;;;4.58;100.00;103620.59;5055788;28;20392;-57
2021/12/16 08:20:44;;;;;;;62.60;22.65;;;;;;;4.59;100.00;103622.28;5056314;28;20056;-58
2021/12/16 08:23:10;;;;;;;65.38;22.90;;;;;;;4.57;100.00;103622.50;5055666;28;20036;-56
2021/12/16 08:25:37;;;;;;;72.78;22.85;;;;;;;4.58;100.00;103623.34;5055622;28;20029;-56
2021/12/16 08:28:04;;;;;;;81.07;25.27;;;;;;;4.60;100.00;103630.31;5055669;28;20107;-56
2021/12/16 08:30:33;;;;;;;64.45;23.00;;;;;;;4.57;100.00;103624.38;5056161;28;20025;-58
2021/12/16 08:33:03;;;;;;;66.32;23.60;;;;;;;4.65;100.00;103635.22;5055698;28;20086;-58
2021/12/16 08:35:29;;;;;;;72.47;23.40;;;;;;;4.66;100.00;103636.91;5055680;28;20082;-57
2021/12/16 08:37:54;;;;;;;44.88;22.05;;;;;;;4.66;100.00;103636.91;5055482;28;20051;-57
2021/12/16 08:40:22;;;;;;;48.78;24.33;;;;;;;4.72;100.00;103648.97;5054249;28;20033;-57
2021/12/16 08:42:48;;;;;;;54.35;23.48;;;;;;;4.72;100.00;103638.88;5055159;28;20047;-57
2021/12/16 08:45:20;;;;;;;50.15;22.85;;;;;;;4.64;100.00;103636.25;5055139;28;20016;-57
2021/12/16 08:47:45;;;;;;;50.50;23.38;;;;;;;4.79;100.00;103658.13;5055185;28;20037;-57
2021/12/16 08:50:13;;;;;;;53.80;22.52;;;;;;;4.84;100.00;103658.38;5055410;28;20025;-56
2021/12/16 08:52:39;;;;;;;66.13;23.52;;;;;;;4.86;100.00;103659.03;5055179;28;20029;-58
2021/12/16 08:55:05;;;;;;;63.45;23.45;;;;;;;4.87;100.00;103660.72;5055192;28;20090;-58
2021/12/16 08:57:31;;;;;;;52.97;21.98;;;;;;;4.90;100.00;103657.59;5054950;28;20039;-58
2021/12/16 08:59:56;;;;;;;63.40;24.65;;;;;;;4.93;100.00;103667.31;5055049;28;20021;-56
2021/12/16 09:02:22;;;;;;;54.38;25.50;;;;;;;4.97;100.00;103666.69;5055009;28;20025;-57
2021/12/16 09:04:49;;;;;;;52.80;23.30;;;;;;;5.02;100.00;103670.75;5055019;28;20028;-56
2021/12/16 09:07:15;;;;;;;46.90;23.40;;;;;;;5.03;100.00;103664.22;5054764;28;20033;-58
2021/12/16 09:09:42;;;;;;;48.42;23.00;;;;;;;5.09;100.00;103671.66;5054981;28;20040;-57
2021/12/16 09:12:26;;;;;;;52.15;22.88;;;;;;;5.08;100.00;103659.84;5054870;28;20436;-57
2021/12/16 09:14:52;;;;;;;50.45;23.77;;;;;;;5.18;100.00;103678.69;5054944;28;20057;-57
2021/12/16 09:17:17;;;;;;;49.42;23.80;;;;;;;5.24;100.00;103680.63;5054757;28;20067;-57
2021/12/16 09:19:46;;;;;;;52.50;26.55;;;;;;;5.27;100.00;103685.72;5054830;28;20055;-57
2021/12/16 09:22:15;;;;;;;50.67;23.25;;;;;;;5.36;100.00;103688.31;5054596;28;20029;-56
2021/12/16 09:24:41;;;;;;;46.60;24.23;;;;;;;5.42;100.00;103691.09;5054361;28;20028;-57
2021/12/16 09:27:06;;;;;;;48.95;23.38;;;;;;;5.43;100.00;103690.06;5054610;28;20037;-57
2021/12/16 09:29:31;;;;;;;44.58;23.13;;;;;;;5.46;100.00;103686.91;5054473;28;20075;-56
2021/12/16 09:31:58;;;;;;;41.97;23.58;;;;;;;5.50;100.00;103686.50;5054724;28;20033;-57
2021/12/16 09:34:24;;;;;;;42.33;24.38;;;;;;;5.51;100.00;103686.31;5054415;28;20029;-57
2021/12/16 09:36:49;;;;;;;41.63;22.83;;;;;;;5.56;100.00;103683.78;5054312;28;20072;-58
2021/12/16 09:39:17;;;;;;;37.75;23.98;;;;;;;5.59;100.00;103693.53;5054241;28;20048;-56
2021/12/16 09:41:47;;;;;;;40.75;24.25;;;;;;;5.62;100.00;103698.63;5052838;28;20392;-56
2021/12/16 09:44:13;;;;;;;41.20;25.95;;;;;;;5.75;100.00;103684.97;5054409;28;20138;-57
2021/12/16 09:46:43;;;;;;;45.53;24.67;;;;;;;5.81;100.00;103683.28;5054203;28;20063;-56
2021/12/16 09:49:08;;;;;;;41.00;24.45;;;;;;;5.84;100.00;103684.78;5054038;28;20028;-56
2021/12/16 09:51:36;;;;;;;40.47;24.83;;;;;;;5.83;100.00;103681.19;5053974;28;20025;-56
2021/12/16 09:54:07;;;;;;;44.05;27.17;;;;;;;5.79;100.00;103671.69;5053895;28;20116;-56
2021/12/16 09:56:34;;;;;;;42.50;25.88;;;;;;;5.82;100.00;103670.41;5053940;28;20039;-56
2021/12/16 09:59:03;;;;;;;43.42;26.65;;;;;;;5.84;100.00;103677.38;5054312;28;20108;-57
2021/12/16 10:01:30;;;;;;;45.88;27.85;;;;;;;5.92;100.00;103685.44;5053815;28;20468;-58
2021/12/16 10:04:00;;;;;;;48.22;28.02;;;;;;;6.00;100.00;103684.47;5053630;28;20021;-57
2021/12/16 10:06:26;;;;;;;45.30;27.85;;;;;;;6.12;100.00;103686.63;5053856;28;20488;-56
2021/12/16 10:08:51;;;;;;;45.53;28.95;;;;;;;6.22;100.00;103678.84;5053832;28;20053;-56
2021/12/16 10:11:17;;;;;;;47.97;29.77;;;;;;;6.29;100.00;103684.34;5053668;28;20135;-58
2021/12/16 10:13:58;;;;;;;48.50;29.88;;;;;;;6.36;100.00;103682.47;5053565;28;20059;-56
2021/12/16 10:19:11;;;;;;;49.42;31.98;;;;;;;6.56;100.00;103680.59;5053643;28;20040;-56
2021/12/16 10:21:37;;;;;;;49.42;30.77;;;;;;;6.65;100.00;103675.75;5053571;28;20107;-57
2021/12/16 10:24:03;;;;;;;47.85;31.08;;;;;;;6.75;100.00;103675.34;5053572;28;20040;-56
2021/12/16 10:26:28;;;;;;;52.33;31.42;;;;;;;6.85;100.00;103669.41;5053427;28;20029;-58
2021/12/16 10:28:58;;;;;;;48.88;32.22;;;;;;;6.90;100.00;103672.38;5053296;28;20028;-57
2021/12/16 10:31:27;;;;;;;51.53;31.85;;;;;;;6.99;100.00;103682.09;5052861;28;20065;-58
2021/12/16 10:34:09;;;;;;;49.03;30.88;;;;;;;7.10;100.00;103672.38;5053153;28;20067;-56
2021/12/16 10:36:41;;;;;;;50.05;30.95;;;;;;;7.20;100.00;103666.41;5053365;28;20053;-57
2021/12/16 10:39:19;;;;;;;50.10;30.58;;;;;;;7.25;100.00;103674.03;5053211;28;20542;-58
2021/12/16 10:41:48;;;;;;;47.25;29.83;;;;;;;7.33;100.00;103660.03;5053712;28;20032;-57
2021/12/16 10:44:22;;;;;;;46.65;29.33;;;;;;;7.42;100.00;103664.25;5051901;28;20522;-56
2021/12/16 10:47:02;;;;;;;49.38;30.42;;;;;;;7.54;100.00;103681.00;5053108;28;20029;-58
2021/12/16 10:49:34;;;;;;;46.80;28.98;;;;;;;7.64;100.00;103686.91;5053084;28;20029;-58
2021/12/16 10:52:19;;;;;;;44.70;28.77;;;;;;;7.66;100.00;103681.16;5053051;28;20032;-58
2021/12/16 10:54:46;;;;;;;43.50;26.27;;;;;;;7.81;100.00;103695.50;5053119;28;20021;-59
2021/12/16 10:57:21;;;;;;;43.70;26.88;;;;;;;7.83;100.00;103681.53;5053077;28;20021;-57
2021/12/16 10:59:53;;;;;;;46.25;27.42;;;;;;;7.89;100.00;103693.56;5052974;28;20048;-58
2021/12/16 11:02:21;;;;;;;45.25;28.10;;;;;;;8.01;100.00;103691.84;5053321;28;20032;-58
2021/12/16 11:05:05;;;;;;;47.75;28.98;;;;;;;8.09;100.00;103697.09;5052841;28;20066;-58
2021/12/16 11:07:42;;;;;;;44.47;28.05;;;;;;;8.13;100.00;103697.50;5053247;28;20025;-58
2021/12/16 11:10:20;;;;;;;44.90;26.63;;;;;;;8.20;100.00;103703.84;5052905;28;20029;-58
2021/12/16 11:12:54;;;;;;;43.13;25.27;;;;;;;8.28;100.00;103705.50;5052948;28;20037;-58
2021/12/16 11:15:36;;;;;;;38.80;24.08;;;;;;;8.31;100.00;103702.31;5053126;28;20068;-57
2021/12/16 11:18:07;;;;;;;40.88;25.33;;;;;;;8.39;100.00;103699.28;5053056;28;20029;-56
2021/12/16 11:20:43;;;;;;;41.65;27.10;;;;;;;8.47;100.00;103702.84;5051688;28;20033;-57
2021/12/16 11:23:21;;;;;;;40.42;25.13;;;;;;;8.58;100.00;103710.44;5052784;28;20032;-57
2021/12/16 11:25:56;;;;;;;41.33;26.73;;;;;;;8.66;100.00;103709.34;5052798;28;20029;-57
2021/12/16 11:28:23;;;;;;;37.20;23.15;;;;;;;8.74;100.00;103706.31;5052746;28;20522;-56
2021/12/16 11:30:56;;;;;;;36.10;23.20;;;;;;;8.80;99.76;103707.34;5053073;28;20401;-57
2021/12/16 11:33:43;;;;;;;36.17;21.85;;;;;;;8.83;99.33;103706.91;5052899;28;20021;-58
2021/12/16 11:36:11;;;;;;;36.08;22.15;;;;;;;8.88;99.16;103696.84;5052813;28;20392;-58
2021/12/16 11:39:08;;;;;;;37.70;22.65;;;;;;;8.91;99.02;103703.88;5052807;28;20465;-58
2021/12/16 11:41:35;;;;;;;33.72;21.50;;;;;;;8.95;98.90;103696.81;5036314;28;20041;-56
2021/12/16 11:44:23;;;;;;;34.80;20.73;;;;;;;8.95;98.63;103691.28;5055783;28;20090;-58
2021/12/16 11:47:15;;;;;;;35.90;21.77;;;;;;;9.03;97.93;103698.44;5056409;28;20028;-58
2021/12/16 11:49:43;;;;;;;36.83;21.33;;;;;;;9.04;97.75;103692.69;5056509;28;20025;-58
2021/12/16 11:52:21;;;;;;;33.53;19.80;;;;;;;8.95;97.75;103682.16;5056273;28;20029;-56
2021/12/16 11:54:57;;;;;;;34.08;19.83;;;;;;;9.05;97.98;103691.63;5056173;28;20054;-55
2021/12/16 11:57:47;;;;;;;33.72;19.67;;;;;;;9.03;97.76;103681.88;5056079;28;20112;-58
2021/12/16 12:00:19;;;;;;;32.25;19.35;;;;;;;8.88;97.19;103666.47;5056189;28;20029;-57
2021/12/16 12:02:54;;;;;;;31.17;18.60;;;;;;;8.95;97.91;103663.66;5056199;28;20029;-58
2021/12/16 12:05:32;;;;;;;33.42;18.85;;;;;;;8.94;97.83;103659.22;5055935;28;20086;-58
2021/12/16 12:08:03;;;;;;;31.42;18.00;;;;;;;9.00;96.93;103666.63;5056042;28;20203;-57
2021/12/16 12:10:52;;;;;;;30.60;18.45;;;;;;;9.03;96.34;103671.66;5056213;28;20029;-58
2021/12/16 12:13:27;;;;;;;31.05;17.38;;;;;;;9.10;96.62;103673.53;5056195;28;20056;-58
2021/12/16 12:15:59;;;;;;;31.77;19.17;;;;;;;9.11;96.20;103684.34;5056066;28;20025;-58
2021/12/16 12:18:39;;;;;;;31.63;17.70;;;;;;;9.14;96.90;103674.75;5055858;28;20036;-57
2021/12/16 12:21:32;;;;;;;33.03;18.75;;;;;;;9.17;96.65;103669.63;5056031;28;20072;-58
2021/12/16 12:24:09;;;;;;;33.13;18.67;;;;;;;9.22;96.08;103668.94;5055632;28;20180;-57
2021/12/16 12:26:38;;;;;;;33.22;19.25;;;;;;;9.24;96.59;103669.56;5055821;28;20021;-57
2021/12/16 12:29:08;;;;;;;29.38;18.02;;;;;;;9.20;95.59;103658.13;5055461;28;20373;-57
2021/12/16 12:31:37;;;;;;;30.67;18.20;;;;;;;9.25;95.55;103660.22;5055585;28;20059;-57
2021/12/16 12:34:02;;;;;;;32.58;18.17;;;;;;;9.34;96.15;103664.38;5055128;28;20029;-58
2021/12/16 12:36:27;;;;;;;32.50;18.48;;;;;;;9.38;95.34;103666.69;5055531;28;20074;-56
2021/12/16 12:38:53;;;;;;;31.95;17.85;;;;;;;9.41;95.45;103672.59;5055395;28;20037;-57
2021/12/16 12:41:20;;;;;;;30.58;17.60;;;;;;;9.44;94.88;103668.50;5055068;28;20021;-57
2021/12/16 12:43:46;;;;;;;29.42;16.27;;;;;;;9.48;95.01;103669.75;5054378;28;20049;-56
2021/12/16 12:46:13;;;;;;;31.42;16.17;;;;;;;9.49;94.51;103672.28;5055315;28;20391;-56
2021/12/16 12:48:41;;;;;;;30.30;17.25;;;;;;;9.47;94.11;103663.38;5054510;28;20029;-55
2021/12/16 12:51:07;;;;;;;31.85;17.33;;;;;;;9.55;93.05;103676.06;5055162;28;20048;-56
2021/12/16 12:53:51;;;;;;;30.65;16.73;;;;;;;9.51;93.89;103664.63;5054700;28;20424;-56
2021/12/16 12:56:43;;;;;;;29.65;16.77;;;;;;;9.58;93.27;103678.38;5054993;28;20120;-56
2021/12/16 12:59:11;;;;;;;32.58;17.38;;;;;;;9.57;92.66;103673.91;5052829;28;20083;-56
2021/12/16 13:01:42;;;;;;;31.38;18.55;;;;;;;9.58;91.95;103678.38;5054778;28;20392;-56
2021/12/16 13:04:14;;;;;;;31.00;18.08;;;;;;;9.57;92.12;103662.84;5054866;28;20098;-56
2021/12/16 13:06:53;;;;;;;31.85;18.05;;;;;;;9.60;91.80;103667.91;5054974;28;20020;-56
2021/12/16 13:09:23;;;;;;;32.40;19.05;;;;;;;9.62;91.59;103664.94;5054627;28;20036;-56
2021/12/16 13:11:48;;;;;;;31.17;18.27;;;;;;;9.68;92.14;103669.53;5053871;28;20059;-56
2021/12/16 13:14:30;;;;;;;32.92;18.45;;;;;;;9.69;92.17;103668.44;5053799;28;20072;-56
2021/12/16 13:17:30;;;;;;;30.75;18.67;;;;;;;9.70;92.58;103663.75;5053990;28;20028;-57
2021/12/16 13:23:28;;;;;;;33.05;20.20;;;;;;;9.70;92.14;103672.91;5053351;28;20090;-56
2021/12/16 13:28:17;;;;;;;30.98;17.75;;;;;;;9.71;91.26;103669.06;5054764;28;20112;-56
2021/12/16 13:31:02;;;;;;;33.58;19.15;;;;;;;9.74;90.51;103673.28;5054446;28;20114;-57
2021/12/16 13:33:44;;;;;;;31.95;18.55;;;;;;;9.69;90.54;103668.44;5054719;28;20122;-56
2021/12/16 13:36:26;;;;;;;31.38;19.15;;;;;;;9.75;90.92;103677.75;5054419;28;20135;-57
2021/12/16 13:38:53;;;;;;;31.52;19.70;;;;;;;9.74;90.88;103676.88;5054485;28;20095;-57
2021/12/16 13:41:25;;;;;;;30.27;18.90;;;;;;;9.74;90.17;103676.88;5053026;28;20040;-56
2021/12/16 13:44:14;;;;;;;32.20;18.65;;;;;;;9.72;91.04;103680.97;5053042;28;20045;-61
2021/12/16 13:47:06;;;;;;;32.38;18.55;;;;;;;9.75;90.31;103680.50;5054114;28;20021;-57
2021/12/16 13:59:32;;;;;;;31.23;18.30;;;;;;;9.74;90.44;103681.59;5054590;28;20486;-57
2021/12/16 14:01:33;;;;;;;31.25;17.13;;;;;;;9.67;90.94;103676.13;5048880;28;20167;-56
2021/12/16 14:06:55;;;;;;;30.35;17.23;;;;;;;9.70;91.02;103683.09;5052766;28;20404;-56